sensor_id;sensor_type;location;lat;lon;timestamp;P1;durP1;ratioP1;P2;durP2;ratioP2
19800;SDS011;10060;48.274;12.214;2022-07-23T00:02:32;16.55;;;12.50;;
19800;SDS011;10060;48.274;12.214;2022-07-23T00:05:34;17.13;;;12.52;;
19800;SDS011;10060;48.274;12.214;2022-07-23T00:08:36;15.50;;;10.73;;
19800;SDS011;10060;48.274;12.214;2022-07-23T00:11:38;14.20;;;11.77;;
19800;SDS011;10060;48.274;12.214;2022-07-23T00:14:42;13.02;;;10.52;;
19800;SDS011;10060;48.274;12.214;2022-07-23T00:17:44;12.85;;;10.40;;
19800;SDS011;10060;48.274;12.214;2022-07-23T00:20:46;12.15;;;10.38;;
19800;SDS011;10060;48.274;12.214;2022-07-23T00:23:48;13.93;;;10.45;;
19800;SDS011;10060;48.274;12.214;2022-07-23T00:26:50;10.35;;;9.07;;
19800;SDS011;10060;48.274;12.214;2022-07-23T00:29:54;10.40;;;9.00;;
19800;SDS011;10060;48.274;12.214;2022-07-23T00:32:57;12.02;;;9.32;;
19800;SDS011;10060;48.274;12.214;2022-07-23T00:35:59;9.88;;;8.60;;
19800;SDS011;10060;48.274;12.214;2022-07-23T00:39:02;12.43;;;9.38;;
19800;SDS011;10060;48.274;12.214;2022-07-23T00:42:04;10.07;;;9.07;;
19800;SDS011;10060;48.274;12.214;2022-07-23T00:45:08;12.73;;;9.13;;
19800;SDS011;10060;48.274;12.214;2022-07-23T00:48:10;15.38;;;9.88;;
19800;SDS011;10060;48.274;12.214;2022-07-23T00:51:12;11.95;;;9.45;;
19800;SDS011;10060;48.274;12.214;2022-07-23T00:54:14;16.42;;;10.07;;
19800;SDS011;10060;48.274;12.214;2022-07-23T00:57:16;9.80;;;8.80;;
19800;SDS011;10060;48.274;12.214;2022-07-23T01:00:20;10.93;;;8.60;;
19800;SDS011;10060;48.274;12.214;2022-07-23T01:03:22;9.70;;;8.70;;
19800;SDS011;10060;48.274;12.214;2022-07-23T01:06:24;10.65;;;9.10;;
19800;SDS011;10060;48.274;12.214;2022-07-23T01:09:27;9.80;;;8.80;;
19800;SDS011;10060;48.274;12.214;2022-07-23T01:12:29;9.88;;;8.75;;
19800;SDS011;10060;48.274;12.214;2022-07-23T01:15:33;11.43;;;8.40;;
19800;SDS011;10060;48.274;12.214;2022-07-23T01:18:35;8.52;;;7.60;;
19800;SDS011;10060;48.274;12.214;2022-07-23T01:21:38;9.70;;;8.65;;
19800;SDS011;10060;48.274;12.214;2022-07-23T01:24:42;9.57;;;8.35;;
19800;SDS011;10060;48.274;12.214;2022-07-23T01:27:44;9.02;;;7.95;;
19800;SDS011;10060;48.274;12.214;2022-07-23T01:30:46;11.02;;;9.50;;
19800;SDS011;10060;48.274;12.214;2022-07-23T01:33:48;11.00;;;9.23;;
19800;SDS011;10060;48.274;12.214;2022-07-23T01:36:51;14.60;;;9.65;;
19800;SDS011;10060;48.274;12.214;2022-07-23T01:39:54;10.18;;;8.73;;
19800;SDS011;10060;48.274;12.214;2022-07-23T01:42:56;12.35;;;8.45;;
19800;SDS011;10060;48.274;12.214;2022-07-23T01:45:58;8.10;;;6.05;;
19800;SDS011;10060;48.274;12.214;2022-07-23T01:49:00;10.05;;;5.78;;
19800;SDS011;10060;48.274;12.214;2022-07-23T01:52:03;9.13;;;7.00;;
19800;SDS011;10060;48.274;12.214;2022-07-23T01:55:10;8.25;;;7.32;;
19800;SDS011;10060;48.274;12.214;2022-07-23T01:58:12;8.30;;;6.50;;
19800;SDS011;10060;48.274;12.214;2022-07-23T02:01:14;8.63;;;6.63;;
19800;SDS011;10060;48.274;12.214;2022-07-23T02:04:16;8.35;;;7.38;;
19800;SDS011;10060;48.274;12.214;2022-07-23T02:07:19;11.07;;;7.45;;
19800;SDS011;10060;48.274;12.214;2022-07-23T02:10:22;11.02;;;6.72;;
19800;SDS011;10060;48.274;12.214;2022-07-23T02:13:24;10.50;;;6.75;;
19800;SDS011;10060;48.274;12.214;2022-07-23T02:16:28;7.80;;;5.95;;
19800;SDS011;10060;48.274;12.214;2022-07-23T02:19:30;9.00;;;6.15;;
19800;SDS011;10060;48.274;12.214;2022-07-23T02:22:33;9.13;;;6.10;;
19800;SDS011;10060;48.274;12.214;2022-07-23T02:25:36;10.45;;;5.95;;
19800;SDS011;10060;48.274;12.214;2022-07-23T02:28:38;10.40;;;5.95;;
19800;SDS011;10060;48.274;12.214;2022-07-23T02:31:40;8.57;;;6.28;;
19800;SDS011;10060;48.274;12.214;2022-07-23T02:34:43;7.95;;;6.10;;
19800;SDS011;10060;48.274;12.214;2022-07-23T02:37:45;10.95;;;5.22;;
19800;SDS011;10060;48.274;12.214;2022-07-23T02:40:48;5.95;;;5.20;;
19800;SDS011;10060;48.274;12.214;2022-07-23T02:43:50;9.55;;;4.70;;
19800;SDS011;10060;48.274;12.214;2022-07-23T02:46:52;11.73;;;4.68;;
19800;SDS011;10060;48.274;12.214;2022-07-23T02:49:54;5.40;;;4.63;;
19800;SDS011;10060;48.274;12.214;2022-07-23T02:52:57;7.55;;;4.50;;
19800;SDS011;10060;48.274;12.214;2022-07-23T02:56:00;6.05;;;3.35;;
19800;SDS011;10060;48.274;12.214;2022-07-23T02:59:02;4.93;;;3.50;;
19800;SDS011;10060;48.274;12.214;2022-07-23T03:02:04;8.20;;;3.80;;
19800;SDS011;10060;48.274;12.214;2022-07-23T03:05:07;7.47;;;4.40;;
19800;SDS011;10060;48.274;12.214;2022-07-23T03:08:09;6.60;;;3.22;;
19800;SDS011;10060;48.274;12.214;2022-07-23T03:11:12;6.53;;;3.47;;
19800;SDS011;10060;48.274;12.214;2022-07-23T03:14:15;6.10;;;3.15;;
19800;SDS011;10060;48.274;12.214;2022-07-23T03:17:17;3.28;;;2.75;;
19800;SDS011;10060;48.274;12.214;2022-07-23T03:20:19;4.03;;;3.15;;
19800;SDS011;10060;48.274;12.214;2022-07-23T03:23:21;6.05;;;3.15;;
19800;SDS011;10060;48.274;12.214;2022-07-23T03:26:24;4.10;;;3.15;;
19800;SDS011;10060;48.274;12.214;2022-07-23T03:29:27;3.70;;;3.13;;
19800;SDS011;10060;48.274;12.214;2022-07-23T03:32:29;3.50;;;3.03;;
19800;SDS011;10060;48.274;12.214;2022-07-23T03:35:32;5.10;;;3.15;;
19800;SDS011;10060;48.274;12.214;2022-07-23T03:38:34;3.58;;;3.22;;
19800;SDS011;10060;48.274;12.214;2022-07-23T03:41:37;3.58;;;3.15;;
19800;SDS011;10060;48.274;12.214;2022-07-23T03:44:39;3.97;;;3.53;;
19800;SDS011;10060;48.274;12.214;2022-07-23T03:47:42;3.80;;;3.22;;
19800;SDS011;10060;48.274;12.214;2022-07-23T03:50:44;3.65;;;3.25;;
19800;SDS011;10060;48.274;12.214;2022-07-23T03:53:46;3.75;;;3.30;;
19800;SDS011;10060;48.274;12.214;2022-07-23T03:56:50;3.80;;;3.38;;
19800;SDS011;10060;48.274;12.214;2022-07-23T03:59:52;5.32;;;3.45;;
19800;SDS011;10060;48.274;12.214;2022-07-23T04:02:54;4.07;;;3.63;;
19800;SDS011;10060;48.274;12.214;2022-07-23T04:05:57;3.50;;;3.15;;
19800;SDS011;10060;48.274;12.214;2022-07-23T04:08:59;4.05;;;3.33;;
19800;SDS011;10060;48.274;12.214;2022-07-23T04:12:02;3.50;;;3.20;;
19800;SDS011;10060;48.274;12.214;2022-07-23T04:15:06;6.40;;;3.42;;
19800;SDS011;10060;48.274;12.214;2022-07-23T04:18:08;4.38;;;3.90;;
19800;SDS011;10060;48.274;12.214;2022-07-23T04:21:10;6.50;;;3.28;;
19800;SDS011;10060;48.274;12.214;2022-07-23T04:24:12;6.97;;;3.70;;
19800;SDS011;10060;48.274;12.214;2022-07-23T04:27:16;4.22;;;3.50;;
19800;SDS011;10060;48.274;12.214;2022-07-23T04:30:18;3.03;;;2.72;;
19800;SDS011;10060;48.274;12.214;2022-07-23T04:33:20;3.80;;;3.03;;
19800;SDS011;10060;48.274;12.214;2022-07-23T04:36:22;3.35;;;2.92;;
19800;SDS011;10060;48.274;12.214;2022-07-23T04:39:24;5.97;;;3.15;;
19800;SDS011;10060;48.274;12.214;2022-07-23T04:42:28;4.45;;;3.10;;
19800;SDS011;10060;48.274;12.214;2022-07-23T04:45:30;4.20;;;2.65;;
19800;SDS011;10060;48.274;12.214;2022-07-23T04:48:32;4.70;;;3.38;;
19800;SDS011;10060;48.274;12.214;2022-07-23T04:51:34;5.03;;;3.78;;
19800;SDS011;10060;48.274;12.214;2022-07-23T04:54:37;4.85;;;3.90;;
19800;SDS011;10060;48.274;12.214;2022-07-23T04:57:40;7.03;;;3.38;;
19800;SDS011;10060;48.274;12.214;2022-07-23T05:00:43;4.00;;;2.70;;
19800;SDS011;10060;48.274;12.214;2022-07-23T05:03:45;3.17;;;2.83;;
19800;SDS011;10060;48.274;12.214;2022-07-23T05:06:48;3.35;;;2.40;;
19800;SDS011;10060;48.274;12.214;2022-07-23T05:09:50;3.15;;;2.80;;
19800;SDS011;10060;48.274;12.214;2022-07-23T05:12:54;3.10;;;2.60;;
19800;SDS011;10060;48.274;12.214;2022-07-23T05:15:56;5.18;;;2.65;;
19800;SDS011;10060;48.274;12.214;2022-07-23T05:18:58;3.28;;;2.85;;
19800;SDS011;10060;48.274;12.214;2022-07-23T05:22:00;3.95;;;3.05;;
19800;SDS011;10060;48.274;12.214;2022-07-23T05:25:03;5.78;;;3.10;;
19800;SDS011;10060;48.274;12.214;2022-07-23T05:28:07;5.45;;;3.50;;
19800;SDS011;10060;48.274;12.214;2022-07-23T05:31:09;3.97;;;3.42;;
19800;SDS011;10060;48.274;12.214;2022-07-23T05:34:11;4.03;;;3.63;;
19800;SDS011;10060;48.274;12.214;2022-07-23T05:37:13;4.93;;;3.95;;
19800;SDS011;10060;48.274;12.214;2022-07-23T05:40:15;4.75;;;4.15;;
19800;SDS011;10060;48.274;12.214;2022-07-23T05:43:19;6.82;;;4.18;;
19800;SDS011;10060;48.274;12.214;2022-07-23T05:46:21;5.82;;;4.30;;
19800;SDS011;10060;48.274;12.214;2022-07-23T05:49:24;4.38;;;3.90;;
19800;SDS011;10060;48.274;12.214;2022-07-23T05:52:26;5.95;;;4.32;;
19800;SDS011;10060;48.274;12.214;2022-07-23T05:55:28;5.13;;;3.97;;
19800;SDS011;10060;48.274;12.214;2022-07-23T05:58:32;5.05;;;4.22;;
19800;SDS011;10060;48.274;12.214;2022-07-23T06:01:35;5.65;;;4.10;;
19800;SDS011;10060;48.274;12.214;2022-07-23T06:04:37;4.47;;;4.07;;
19800;SDS011;10060;48.274;12.214;2022-07-23T06:07:39;5.40;;;4.32;;
19800;SDS011;10060;48.274;12.214;2022-07-23T06:10:42;5.10;;;3.80;;
19800;SDS011;10060;48.274;12.214;2022-07-23T06:13:45;4.28;;;3.67;;
19800;SDS011;10060;48.274;12.214;2022-07-23T06:16:48;5.75;;;4.18;;
19800;SDS011;10060;48.274;12.214;2022-07-23T06:19:50;6.57;;;3.90;;
19800;SDS011;10060;48.274;12.214;2022-07-23T06:22:52;5.43;;;4.13;;
19800;SDS011;10060;48.274;12.214;2022-07-23T06:25:55;4.65;;;4.22;;
19800;SDS011;10060;48.274;12.214;2022-07-23T06:28:58;4.22;;;3.83;;
19800;SDS011;10060;48.274;12.214;2022-07-23T06:32:00;5.63;;;4.57;;
19800;SDS011;10060;48.274;12.214;2022-07-23T06:35:03;6.78;;;4.70;;
19800;SDS011;10060;48.274;12.214;2022-07-23T06:38:05;5.13;;;4.10;;
19800;SDS011;10060;48.274;12.214;2022-07-23T06:41:07;4.47;;;4.00;;
19800;SDS011;10060;48.274;12.214;2022-07-23T06:44:10;5.47;;;4.70;;
19800;SDS011;10060;48.274;12.214;2022-07-23T06:47:13;5.88;;;4.35;;
19800;SDS011;10060;48.274;12.214;2022-07-23T06:50:15;8.07;;;4.53;;
19800;SDS011;10060;48.274;12.214;2022-07-23T06:53:17;4.40;;;4.00;;
19800;SDS011;10060;48.274;12.214;2022-07-23T06:56:19;4.40;;;4.00;;
19800;SDS011;10060;48.274;12.214;2022-07-23T06:59:23;5.03;;;4.15;;
19800;SDS011;10060;48.274;12.214;2022-07-23T07:02:25;4.72;;;3.83;;
19800;SDS011;10060;48.274;12.214;2022-07-23T07:05:30;5.60;;;4.03;;
19800;SDS011;10060;48.274;12.214;2022-07-23T07:08:32;4.70;;;4.20;;
19800;SDS011;10060;48.274;12.214;2022-07-23T07:11:34;5.93;;;4.60;;
19800;SDS011;10060;48.274;12.214;2022-07-23T07:14:38;6.93;;;4.40;;
19800;SDS011;10060;48.274;12.214;2022-07-23T07:17:40;8.57;;;4.78;;
19800;SDS011;10060;48.274;12.214;2022-07-23T07:20:43;6.07;;;4.97;;
19800;SDS011;10060;48.274;12.214;2022-07-23T07:23:45;7.20;;;5.03;;
19800;SDS011;10060;48.274;12.214;2022-07-23T07:26:47;6.40;;;5.38;;
19800;SDS011;10060;48.274;12.214;2022-07-23T07:29:51;5.85;;;5.10;;
19800;SDS011;10060;48.274;12.214;2022-07-23T07:32:53;6.25;;;5.63;;
19800;SDS011;10060;48.274;12.214;2022-07-23T07:35:55;6.10;;;5.40;;
19800;SDS011;10060;48.274;12.214;2022-07-23T07:38:58;7.70;;;5.47;;
19800;SDS011;10060;48.274;12.214;2022-07-23T07:42:00;8.32;;;5.75;;
19800;SDS011;10060;48.274;12.214;2022-07-23T07:45:04;5.53;;;4.80;;
19800;SDS011;10060;48.274;12.214;2022-07-23T07:48:07;6.57;;;5.80;;
19800;SDS011;10060;48.274;12.214;2022-07-23T07:51:09;7.97;;;5.35;;
19800;SDS011;10060;48.274;12.214;2022-07-23T07:54:11;6.03;;;5.10;;
19800;SDS011;10060;48.274;12.214;2022-07-23T07:57:13;7.32;;;5.35;;
19800;SDS011;10060;48.274;12.214;2022-07-23T08:00:17;5.43;;;4.93;;
19800;SDS011;10060;48.274;12.214;2022-07-23T08:03:19;6.80;;;5.63;;
19800;SDS011;10060;48.274;12.214;2022-07-23T08:06:21;6.57;;;5.10;;
19800;SDS011;10060;48.274;12.214;2022-07-23T08:09:24;5.68;;;5.05;;
19800;SDS011;10060;48.274;12.214;2022-07-23T08:12:26;6.60;;;5.30;;
19800;SDS011;10060;48.274;12.214;2022-07-23T08:15:30;5.78;;;5.20;;
19800;SDS011;10060;48.274;12.214;2022-07-23T08:18:32;6.55;;;5.57;;
19800;SDS011;10060;48.274;12.214;2022-07-23T08:21:34;6.10;;;5.50;;
19800;SDS011;10060;48.274;12.214;2022-07-23T08:24:36;7.60;;;6.05;;
19800;SDS011;10060;48.274;12.214;2022-07-23T08:27:39;7.20;;;5.75;;
19800;SDS011;10060;48.274;12.214;2022-07-23T08:30:43;6.13;;;5.00;;
19800;SDS011;10060;48.274;12.214;2022-07-23T08:33:45;6.20;;;5.28;;
19800;SDS011;10060;48.274;12.214;2022-07-23T08:36:47;6.18;;;5.18;;
19800;SDS011;10060;48.274;12.214;2022-07-23T08:39:50;5.75;;;5.15;;
19800;SDS011;10060;48.274;12.214;2022-07-23T08:42:52;8.18;;;6.30;;
19800;SDS011;10060;48.274;12.214;2022-07-23T08:45:56;6.60;;;5.60;;
19800;SDS011;10060;48.274;12.214;2022-07-23T08:48:59;14.23;;;5.80;;
19800;SDS011;10060;48.274;12.214;2022-07-23T08:52:01;8.05;;;6.10;;
19800;SDS011;10060;48.274;12.214;2022-07-23T08:55:04;9.50;;;6.13;;
19800;SDS011;10060;48.274;12.214;2022-07-23T08:58:06;7.32;;;6.10;;
19800;SDS011;10060;48.274;12.214;2022-07-23T09:01:09;6.30;;;5.70;;
19800;SDS011;10060;48.274;12.214;2022-07-23T09:04:11;8.45;;;5.68;;
19800;SDS011;10060;48.274;12.214;2022-07-23T09:07:13;7.65;;;6.60;;
19800;SDS011;10060;48.274;12.214;2022-07-23T09:10:16;7.22;;;6.40;;
19800;SDS011;10060;48.274;12.214;2022-07-23T09:13:25;7.95;;;6.05;;
19800;SDS011;10060;48.274;12.214;2022-07-23T09:16:29;8.50;;;6.68;;
19800;SDS011;10060;48.274;12.214;2022-07-23T09:19:32;6.90;;;6.20;;
19800;SDS011;10060;48.274;12.214;2022-07-23T09:22:34;7.90;;;7.10;;
19800;SDS011;10060;48.274;12.214;2022-07-23T09:25:36;8.48;;;6.65;;
19800;SDS011;10060;48.274;12.214;2022-07-23T09:28:47;7.03;;;6.32;;
19800;SDS011;10060;48.274;12.214;2022-07-23T09:31:52;8.93;;;6.72;;
19800;SDS011;10060;48.274;12.214;2022-07-23T09:34:54;9.90;;;6.60;;
19800;SDS011;10060;48.274;12.214;2022-07-23T09:38:00;9.20;;;7.00;;
19800;SDS011;10060;48.274;12.214;2022-07-23T09:41:06;7.85;;;7.05;;
19800;SDS011;10060;48.274;12.214;2022-07-23T09:44:09;8.02;;;6.78;;
19800;SDS011;10060;48.274;12.214;2022-07-23T09:47:13;8.57;;;7.35;;
19800;SDS011;10060;48.274;12.214;2022-07-23T09:50:16;8.60;;;6.72;;
19800;SDS011;10060;48.274;12.214;2022-07-23T09:53:23;7.97;;;6.85;;
19800;SDS011;10060;48.274;12.214;2022-07-23T09:56:26;7.82;;;6.63;;
19800;SDS011;10060;48.274;12.214;2022-07-23T09:59:30;9.13;;;6.68;;
19800;SDS011;10060;48.274;12.214;2022-07-23T10:02:35;8.52;;;6.63;;
19800;SDS011;10060;48.274;12.214;2022-07-23T10:05:37;9.23;;;7.05;;
19800;SDS011;10060;48.274;12.214;2022-07-23T10:08:40;9.70;;;6.78;;
19800;SDS011;10060;48.274;12.214;2022-07-23T10:11:43;8.18;;;7.05;;
19800;SDS011;10060;48.274;12.214;2022-07-23T10:14:45;8.98;;;7.13;;
19800;SDS011;10060;48.274;12.214;2022-07-23T10:17:49;8.95;;;6.43;;
19800;SDS011;10060;48.274;12.214;2022-07-23T10:20:51;8.98;;;6.68;;
19800;SDS011;10060;48.274;12.214;2022-07-23T10:23:58;9.13;;;6.82;;
19800;SDS011;10060;48.274;12.214;2022-07-23T10:27:05;9.48;;;6.63;;
19800;SDS011;10060;48.274;12.214;2022-07-23T10:30:15;7.70;;;6.40;;
19800;SDS011;10060;48.274;12.214;2022-07-23T10:33:24;8.00;;;6.88;;
19800;SDS011;10060;48.274;12.214;2022-07-23T10:36:30;9.50;;;8.05;;
19800;SDS011;10060;48.274;12.214;2022-07-23T10:39:34;7.93;;;7.13;;
19800;SDS011;10060;48.274;12.214;2022-07-23T10:42:37;8.82;;;7.93;;
19800;SDS011;10060;48.274;12.214;2022-07-23T10:45:39;8.02;;;6.90;;
19800;SDS011;10060;48.274;12.214;2022-07-23T10:48:42;8.05;;;6.90;;
19800;SDS011;10060;48.274;12.214;2022-07-23T10:58:19;8.23;;;6.68;;
19800;SDS011;10060;48.274;12.214;2022-07-23T11:01:32;9.13;;;6.30;;
19800;SDS011;10060;48.274;12.214;2022-07-23T11:04:49;7.18;;;5.93;;
19800;SDS011;10060;48.274;12.214;2022-07-23T11:08:10;6.13;;;5.53;;
19800;SDS011;10060;48.274;12.214;2022-07-23T11:11:14;6.70;;;6.05;;
19800;SDS011;10060;48.274;12.214;2022-07-23T11:14:20;8.95;;;5.97;;
19800;SDS011;10060;48.274;12.214;2022-07-23T11:21:06;7.53;;;6.20;;
19800;SDS011;10060;48.274;12.214;2022-07-23T11:24:29;7.07;;;5.80;;
19800;SDS011;10060;48.274;12.214;2022-07-23T11:27:36;8.38;;;5.13;;
19800;SDS011;10060;48.274;12.214;2022-07-23T11:30:40;7.00;;;6.05;;
19800;SDS011;10060;48.274;12.214;2022-07-23T11:33:42;7.15;;;5.93;;
19800;SDS011;10060;48.274;12.214;2022-07-23T11:36:49;7.72;;;5.75;;
19800;SDS011;10060;48.274;12.214;2022-07-23T11:39:52;7.43;;;6.55;;
19800;SDS011;10060;48.274;12.214;2022-07-23T11:42:57;6.43;;;5.75;;
19800;SDS011;10060;48.274;12.214;2022-07-23T11:45:59;8.40;;;5.68;;
19800;SDS011;10060;48.274;12.214;2022-07-23T11:49:02;7.18;;;5.40;;
19800;SDS011;10060;48.274;12.214;2022-07-23T11:52:06;6.85;;;5.72;;
19800;SDS011;10060;48.274;12.214;2022-07-23T11:55:09;6.80;;;5.93;;
19800;SDS011;10060;48.274;12.214;2022-07-23T11:58:11;8.45;;;6.30;;
19800;SDS011;10060;48.274;12.214;2022-07-23T12:01:13;6.85;;;6.03;;
19800;SDS011;10060;48.274;12.214;2022-07-23T12:04:15;6.90;;;5.90;;
19800;SDS011;10060;48.274;12.214;2022-07-23T12:07:26;7.43;;;5.95;;
19800;SDS011;10060;48.274;12.214;2022-07-23T12:10:29;7.60;;;6.30;;
19800;SDS011;10060;48.274;12.214;2022-07-23T12:13:31;7.07;;;6.30;;
19800;SDS011;10060;48.274;12.214;2022-07-23T12:16:33;8.25;;;6.68;;
19800;SDS011;10060;48.274;12.214;2022-07-23T12:19:38;8.10;;;6.80;;
19800;SDS011;10060;48.274;12.214;2022-07-23T12:22:49;7.47;;;6.68;;
19800;SDS011;10060;48.274;12.214;2022-07-23T12:25:54;6.50;;;5.90;;
19800;SDS011;10060;48.274;12.214;2022-07-23T12:28:57;9.15;;;6.15;;
19800;SDS011;10060;48.274;12.214;2022-07-23T12:31:59;7.63;;;6.22;;
19800;SDS011;10060;48.274;12.214;2022-07-23T12:35:03;8.70;;;6.05;;
19800;SDS011;10060;48.274;12.214;2022-07-23T12:38:07;7.70;;;6.25;;
19800;SDS011;10060;48.274;12.214;2022-07-23T12:41:09;9.10;;;6.13;;
19800;SDS011;10060;48.274;12.214;2022-07-23T12:44:13;8.07;;;6.10;;
19800;SDS011;10060;48.274;12.214;2022-07-23T12:47:16;6.88;;;5.38;;
19800;SDS011;10060;48.274;12.214;2022-07-23T12:50:31;6.10;;;5.50;;
19800;SDS011;10060;48.274;12.214;2022-07-23T12:53:38;6.88;;;5.40;;
19800;SDS011;10060;48.274;12.214;2022-07-23T12:56:44;7.35;;;5.57;;
19800;SDS011;10060;48.274;12.214;2022-07-23T12:59:46;6.35;;;5.30;;
19800;SDS011;10060;48.274;12.214;2022-07-23T13:02:48;7.35;;;5.22;;
19800;SDS011;10060;48.274;12.214;2022-07-23T13:05:52;9.23;;;5.50;;
19800;SDS011;10060;48.274;12.214;2022-07-23T13:08:56;7.18;;;5.60;;
19800;SDS011;10060;48.274;12.214;2022-07-23T13:11:58;7.20;;;4.97;;
19800;SDS011;10060;48.274;12.214;2022-07-23T13:15:00;7.45;;;6.22;;
19800;SDS011;10060;48.274;12.214;2022-07-23T13:18:02;6.47;;;5.75;;
19800;SDS011;10060;48.274;12.214;2022-07-23T13:21:05;6.05;;;4.72;;
19800;SDS011;10060;48.274;12.214;2022-07-23T13:24:09;6.07;;;5.07;;
19800;SDS011;10060;48.274;12.214;2022-07-23T13:27:12;7.47;;;5.22;;
19800;SDS011;10060;48.274;12.214;2022-07-23T13:30:14;6.32;;;5.03;;
19800;SDS011;10060;48.274;12.214;2022-07-23T13:33:16;9.55;;;4.88;;
19800;SDS011;10060;48.274;12.214;2022-07-23T13:36:19;9.48;;;5.07;;
19800;SDS011;10060;48.274;12.214;2022-07-23T13:39:22;8.18;;;5.72;;
19800;SDS011;10060;48.274;12.214;2022-07-23T13:42:24;8.23;;;4.88;;
19800;SDS011;10060;48.274;12.214;2022-07-23T13:45:27;7.82;;;5.00;;
19800;SDS011;10060;48.274;12.214;2022-07-23T13:48:29;6.20;;;5.60;;
19800;SDS011;10060;48.274;12.214;2022-07-23T13:51:31;7.00;;;6.15;;
19800;SDS011;10060;48.274;12.214;2022-07-23T13:54:35;8.13;;;5.60;;
19800;SDS011;10060;48.274;12.214;2022-07-23T13:57:38;6.63;;;5.90;;
19800;SDS011;10060;48.274;12.214;2022-07-23T14:00:41;7.63;;;5.68;;
19800;SDS011;10060;48.274;12.214;2022-07-23T14:03:44;9.05;;;5.88;;
19800;SDS011;10060;48.274;12.214;2022-07-23T14:06:46;8.05;;;6.00;;
19800;SDS011;10060;48.274;12.214;2022-07-23T14:09:49;7.72;;;6.07;;
19800;SDS011;10060;48.274;12.214;2022-07-23T14:12:52;8.13;;;5.88;;
19800;SDS011;10060;48.274;12.214;2022-07-23T14:15:56;9.43;;;6.70;;
19800;SDS011;10060;48.274;12.214;2022-07-23T14:18:58;12.85;;;6.13;;
19800;SDS011;10060;48.274;12.214;2022-07-23T14:22:00;7.60;;;5.78;;
19800;SDS011;10060;48.274;12.214;2022-07-23T14:25:05;7.53;;;6.15;;
19800;SDS011;10060;48.274;12.214;2022-07-23T14:28:08;6.65;;;5.80;;
19800;SDS011;10060;48.274;12.214;2022-07-23T14:31:11;8.15;;;6.78;;
19800;SDS011;10060;48.274;12.214;2022-07-23T14:34:14;8.77;;;6.63;;
19800;SDS011;10060;48.274;12.214;2022-07-23T14:37:16;7.22;;;6.30;;
19800;SDS011;10060;48.274;12.214;2022-07-23T14:40:20;10.35;;;6.70;;
19800;SDS011;10060;48.274;12.214;2022-07-23T14:43:22;9.15;;;6.82;;
19800;SDS011;10060;48.274;12.214;2022-07-23T14:46:24;7.68;;;6.25;;
19800;SDS011;10060;48.274;12.214;2022-07-23T14:49:26;7.65;;;6.38;;
19800;SDS011;10060;48.274;12.214;2022-07-23T14:52:29;7.22;;;5.70;;
19800;SDS011;10060;48.274;12.214;2022-07-23T14:55:33;9.05;;;6.50;;
19800;SDS011;10060;48.274;12.214;2022-07-23T14:58:35;6.55;;;5.93;;
19800;SDS011;10060;48.274;12.214;2022-07-23T15:01:37;6.50;;;5.80;;
19800;SDS011;10060;48.274;12.214;2022-07-23T15:04:40;6.45;;;5.80;;
19800;SDS011;10060;48.274;12.214;2022-07-23T15:07:42;11.05;;;6.03;;
19800;SDS011;10060;48.274;12.214;2022-07-23T15:10:45;7.13;;;6.43;;
19800;SDS011;10060;48.274;12.214;2022-07-23T15:13:47;8.00;;;6.25;;
19800;SDS011;10060;48.274;12.214;2022-07-23T15:16:49;7.35;;;6.13;;
19800;SDS011;10060;48.274;12.214;2022-07-23T15:19:55;14.45;;;6.47;;
19800;SDS011;10060;48.274;12.214;2022-07-23T15:22:57;10.05;;;6.28;;
19800;SDS011;10060;48.274;12.214;2022-07-23T15:26:01;8.90;;;6.22;;
19800;SDS011;10060;48.274;12.214;2022-07-23T15:29:03;7.95;;;6.00;;
19800;SDS011;10060;48.274;12.214;2022-07-23T15:32:06;7.45;;;6.72;;
19800;SDS011;10060;48.274;12.214;2022-07-23T15:35:08;9.43;;;6.22;;
19800;SDS011;10060;48.274;12.214;2022-07-23T15:38:10;7.93;;;6.75;;
19800;SDS011;10060;48.274;12.214;2022-07-23T15:41:14;8.27;;;6.45;;
19800;SDS011;10060;48.274;12.214;2022-07-23T15:44:16;8.50;;;6.00;;
19800;SDS011;10060;48.274;12.214;2022-07-23T15:47:18;7.68;;;6.35;;
19800;SDS011;10060;48.274;12.214;2022-07-23T15:50:21;7.68;;;6.30;;
19800;SDS011;10060;48.274;12.214;2022-07-23T15:53:23;7.32;;;6.38;;
19800;SDS011;10060;48.274;12.214;2022-07-23T15:56:27;10.30;;;7.25;;
19800;SDS011;10060;48.274;12.214;2022-07-23T15:59:29;9.65;;;6.65;;
19800;SDS011;10060;48.274;12.214;2022-07-23T16:02:32;7.55;;;6.40;;
19800;SDS011;10060;48.274;12.214;2022-07-23T16:05:34;6.80;;;6.10;;
19800;SDS011;10060;48.274;12.214;2022-07-23T16:08:36;7.45;;;6.45;;
19800;SDS011;10060;48.274;12.214;2022-07-23T16:11:40;7.85;;;6.80;;
19800;SDS011;10060;48.274;12.214;2022-07-23T16:14:42;8.70;;;7.63;;
19800;SDS011;10060;48.274;12.214;2022-07-23T16:17:44;9.25;;;8.00;;
19800;SDS011;10060;48.274;12.214;2022-07-23T16:20:46;10.25;;;7.47;;
19800;SDS011;10060;48.274;12.214;2022-07-23T16:23:48;10.80;;;8.13;;
19800;SDS011;10060;48.274;12.214;2022-07-23T16:26:53;8.95;;;7.60;;
19800;SDS011;10060;48.274;12.214;2022-07-23T16:29:55;7.95;;;7.15;;
19800;SDS011;10060;48.274;12.214;2022-07-23T16:32:57;8.02;;;7.15;;
19800;SDS011;10060;48.274;12.214;2022-07-23T16:35:59;9.45;;;7.03;;
19800;SDS011;10060;48.274;12.214;2022-07-23T16:39:02;11.38;;;7.85;;
19800;SDS011;10060;48.274;12.214;2022-07-23T16:42:06;13.05;;;8.77;;
19800;SDS011;10060;48.274;12.214;2022-07-23T16:45:08;8.95;;;7.70;;
19800;SDS011;10060;48.274;12.214;2022-07-23T16:48:11;11.43;;;8.10;;
19800;SDS011;10060;48.274;12.214;2022-07-23T16:51:13;6.00;;;5.40;;
19800;SDS011;10060;48.274;12.214;2022-07-23T16:54:15;6.05;;;5.25;;
19800;SDS011;10060;48.274;12.214;2022-07-23T16:57:19;9.85;;;5.22;;
19800;SDS011;10060;48.274;12.214;2022-07-23T17:00:21;5.55;;;5.05;;
19800;SDS011;10060;48.274;12.214;2022-07-23T17:03:23;6.20;;;5.57;;
19800;SDS011;10060;48.274;12.214;2022-07-23T17:06:26;6.05;;;5.20;;
19800;SDS011;10060;48.274;12.214;2022-07-23T17:09:28;6.80;;;5.57;;
19800;SDS011;10060;48.274;12.214;2022-07-23T17:12:32;6.05;;;5.22;;
19800;SDS011;10060;48.274;12.214;2022-07-23T17:15:34;6.07;;;4.70;;
19800;SDS011;10060;48.274;12.214;2022-07-23T17:18:37;7.75;;;5.20;;
19800;SDS011;10060;48.274;12.214;2022-07-23T17:21:39;8.02;;;5.00;;
19800;SDS011;10060;48.274;12.214;2022-07-23T17:24:41;5.93;;;5.32;;
19800;SDS011;10060;48.274;12.214;2022-07-23T17:27:45;6.75;;;6.05;;
19800;SDS011;10060;48.274;12.214;2022-07-23T17:30:48;5.50;;;4.70;;
19800;SDS011;10060;48.274;12.214;2022-07-23T17:33:50;5.97;;;5.05;;
19800;SDS011;10060;48.274;12.214;2022-07-23T17:36:52;7.00;;;5.30;;
19800;SDS011;10060;48.274;12.214;2022-07-23T17:39:54;7.13;;;5.70;;
19800;SDS011;10060;48.274;12.214;2022-07-23T17:42:58;6.78;;;5.47;;
19800;SDS011;10060;48.274;12.214;2022-07-23T17:46:00;5.78;;;5.15;;
19800;SDS011;10060;48.274;12.214;2022-07-23T17:49:02;8.82;;;5.43;;
19800;SDS011;10060;48.274;12.214;2022-07-23T17:52:05;10.27;;;5.28;;
19800;SDS011;10060;48.274;12.214;2022-07-23T17:55:07;5.85;;;5.10;;
19800;SDS011;10060;48.274;12.214;2022-07-23T17:58:11;7.05;;;5.22;;
19800;SDS011;10060;48.274;12.214;2022-07-23T18:01:13;7.50;;;5.57;;
19800;SDS011;10060;48.274;12.214;2022-07-23T18:04:15;8.25;;;6.05;;
19800;SDS011;10060;48.274;12.214;2022-07-23T18:07:17;5.93;;;5.30;;
19800;SDS011;10060;48.274;12.214;2022-07-23T18:10:20;8.15;;;6.28;;
19800;SDS011;10060;48.274;12.214;2022-07-23T18:13:23;7.65;;;5.93;;
19800;SDS011;10060;48.274;12.214;2022-07-23T18:16:25;6.50;;;5.55;;